Time;durP1;ratioP1;P1;durP2;ratioP2;P2;SDS_P1;SDS_P2;PMS_P1;PMS_P2;Temp;Humidity;BMP_temperature;BMP_pressure;BME280_temperature;BME280_humidity;BME280_pressure;Samples;Min_cycle;Max_cycle;Signal;HPM_P1;HPM_P2
2022/12/27 00:00:44;;;;;;;320.92;105.55;;;;;;;9.06;81.93;99488.94;4948694;29;20055;-55
2022/12/27 00:03:38;;;;;;;346.60;112.47;;;;;;;8.92;82.06;99484.41;4940709;29;20079;-52
2022/12/27 00:06:18;;;;;;;360.95;112.57;;;;;;;8.79;82.98;99496.59;4931608;29;20051;-54
2022/12/27 00:09:13;;;;;;;364.15;118.72;;;;;;;8.92;82.65;99497.78;4948949;29;20074;-55
2022/12/27 00:11:49;;;;;;;376.27;119.53;;;;;;;8.89;82.16;99500.84;4948596;29;20054;-54
2022/12/27 00:14:39;;;;;;;375.23;121.88;;;;;;;8.96;82.20;99499.09;4922228;29;20130;-58
2022/12/27 00:17:21;;;;;;;371.25;122.18;;;;;;;9.17;81.09;99499.19;4929670;29;20055;-53
2022/12/27 00:20:17;;;;;;;382.38;121.03;;;;;;;9.32;80.50;99512.56;4948359;29;20097;-51
2022/12/27 00:22:53;;;;;;;370.38;119.68;;;;;;;9.43;81.10;99519.28;4947296;29;20556;-53
2022/12/27 00:25:47;;;;;;;369.75;117.57;;;;;;;9.29;80.85;99514.78;4922942;29;20137;-54
2022/12/27 00:28:23;;;;;;;386.15;124.93;;;;;;;9.44;79.88;99504.91;4928784;29;20118;-55
2022/12/27 00:31:19;;;;;;;369.58;121.95;;;;;;;9.31;79.94;99502.06;4928631;29;20051;-54
2022/12/27 00:33:57;;;;;;;371.17;122.78;;;;;;;9.40;80.77;99506.25;4930144;29;20058;-53
2022/12/27 00:36:46;;;;;;;370.83;124.45;;;;;;;9.34;80.47;99518.59;4945308;29;20110;-54
2022/12/27 00:39:36;;;;;;;386.45;126.00;;;;;;;9.14;81.49;99520.97;4929926;29;20052;-53
2022/12/27 00:42:18;;;;;;;381.67;126.90;;;;;;;9.16;81.09;99518.13;4930030;29;20114;-57
2022/12/27 00:45:07;;;;;;;401.13;128.98;;;;;;;9.06;80.99;99521.06;4929409;29;20126;-54
2022/12/27 00:47:50;;;;;;;398.40;129.63;;;;;;;9.19;80.66;99523.09;4933369;29;20055;-53
2022/12/27 00:50:39;;;;;;;389.25;130.50;;;;;;;9.28;80.82;99523.84;4949391;28;20129;-57
2022/12/27 00:53:23;;;;;;;387.80;130.90;;;;;;;9.43;80.28;99535.38;4941809;29;20491;-54
2022/12/27 00:56:19;;;;;;;378.67;122.55;;;;;;;9.49;79.90;99541.84;4931460;29;20047;-53
2022/12/27 00:59:03;;;;;;;356.75;117.40;;;;;;;9.15;80.62;99537.88;4942277;29;20051;-53
2022/12/27 01:01:52;;;;;;;356.70;116.85;;;;;;;9.28;79.86;99543.41;4945295;29;20051;-57
2022/12/27 01:04:34;;;;;;;347.55;116.13;;;;;;;9.30;80.51;99546.72;4930951;29;20040;-51
2022/12/27 01:07:24;;;;;;;339.70;114.35;;;;;;;9.08;80.35;99543.16;4928582;28;20817;-55
2022/12/27 01:10:19;;;;;;;337.50;114.53;;;;;;;8.98;80.99;99534.53;4947236;28;20063;-52
2022/12/27 01:12:55;;;;;;;370.42;115.15;;;;;;;8.83;81.08;99529.19;4940453;29;20297;-53
2022/12/27 01:15:49;;;;;;;373.42;118.35;;;;;;;9.05;80.98;99519.41;4948110;29;20456;-53
2022/12/27 01:18:25;;;;;;;366.83;118.32;;;;;;;9.29;80.89;99512.13;4944467;29;20075;-56
2022/12/27 01:21:24;;;;;;;358.20;116.65;;;;;;;9.25;80.46;99516.16;4947179;29;20065;-54
2022/12/27 01:23:59;;;;;;;360.30;118.20;;;;;;;9.13;80.52;99530.03;4939107;29;20066;-53
2022/12/27 01:26:48;;;;;;;389.95;120.35;;;;;;;9.04;80.49;99536.50;4911342;29;20052;-56
2022/12/27 01:29:37;;;;;;;338.50;108.82;;;;;;;9.17;81.26;99539.38;4946136;29;20047;-53
2022/12/27 01:32:20;;;;;;;332.80;104.90;;;;;;;9.11;80.19;99545.44;4935302;29;20058;-53
2022/12/27 01:35:08;;;;;;;356.05;107.40;;;;;;;8.74;81.71;99549.81;4928438;29;20150;-59
2022/12/27 01:37:51;;;;;;;334.50;104.00;;;;;;;9.18;81.34;99549.03;4928374;29;20056;-56
2022/12/27 01:40:42;;;;;;;323.27;102.45;;;;;;;8.91;81.89;99561.22;4943872;29;20662;-56
2022/12/27 01:43:37;;;;;;;349.42;104.28;;;;;;;9.01;82.01;99548.38;4943027;29;20663;-57
2022/12/27 01:46:28;;;;;;;326.27;103.07;;;;;;;8.98;81.62;99542.56;4927989;29;20091;-55
2022/12/27 01:49:11;;;;;;;342.60;104.43;;;;;;;9.17;81.57;99542.03;4930054;29;20915;-56
2022/12/27 01:51:59;;;;;;;352.30;104.63;;;;;;;8.92;80.92;99541.47;4940810;28;20058;-54
2022/12/27 01:54:42;;;;;;;348.98;105.78;;;;;;;8.72;81.45;99553.72;4935976;29;20051;-55
2022/12/27 01:57:30;;;;;;;306.42;99.85;;;;;;;8.90;81.42;99556.03;4930990;29;20043;-53
2022/12/27 02:00:13;;;;;;;327.23;100.45;;;;;;;8.99;81.49;99560.31;4928154;29;20055;-55
2022/12/27 02:03:02;;;;;;;332.17;102.07;;;;;;;8.80;82.06;99559.78;4930885;29;20051;-55
2022/12/27 02:05:45;;;;;;;346.55;101.63;;;;;;;8.71;81.70;99573.44;4926979;29;20657;-53
2022/12/27 02:09:05;;;;;;;308.95;96.15;;;;;;;8.60;82.66;99585.41;4927175;29;20056;-51
2022/12/27 02:11:52;;;;;;;297.65;94.60;;;;;;;8.60;82.50;99594.28;4925751;29;20568;-53
2022/12/27 02:14:54;;;;;;;283.75;91.60;;;;;;;8.55;82.52;99603.84;4910372;29;20064;-53
2022/12/27 02:17:36;;;;;;;263.67;85.10;;;;;;;8.69;82.18;99602.22;4926639;29;20047;-56
2022/12/27 02:20:31;;;;;;;272.98;86.07;;;;;;;8.93;82.25;99606.53;4945303;28;20134;-57
2022/12/27 02:24:05;;;;;;;275.70;86.32;;;;;;;8.94;81.44;99608.19;4936540;29;20146;-53
2022/12/27 02:27:17;;;;;;;260.38;85.65;;;;;;;9.09;81.00;99595.66;4945078;29;20135;-56
2022/12/27 02:30:09;;;;;;;278.88;85.50;;;;;;;9.01;81.74;99560.94;4906979;29;20158;-53
2022/12/27 02:33:03;;;;;;;251.75;83.32;;;;;;;8.87;81.51;99559.91;4934758;29;20043;-55
2022/12/27 02:36:09;;;;;;;255.93;83.57;;;;;;;8.77;82.12;99562.84;4944767;29;20048;-53
2022/12/27 02:38:50;;;;;;;260.83;83.47;;;;;;;8.91;81.72;99560.38;4927361;29;20044;-53
2022/12/27 02:55:08;;;;;;;195.75;67.30;;;;;;;8.90;82.04;99612.25;4927482;29;20146;-54
2022/12/27 02:58:15;;;;;;;197.80;65.00;;;;;;;8.89;81.82;99626.66;4945138;29;20059;-51
2022/12/27 03:04:44;;;;;;;172.70;63.65;;;;;;;9.19;80.90;99628.38;4934282;29;20102;-55
2022/12/27 03:07:40;;;;;;;;;;;;;;;9.30;80.65;99626.25;4935504;29;20058;-55
2022/12/27 03:17:54;;;;;;;181.10;61.40;;;;;;;9.07;81.26;99634.34;4938775;29;20163;-54
2022/12/27 03:26:58;;;;;;;166.93;61.72;;;;;;;9.02;81.08;99621.53;4940134;29;20474;-55
2022/12/27 03:33:12;;;;;;;171.93;62.97;;;;;;;9.48;79.51;99608.00;4933955;29;20051;-56
2022/12/27 03:39:18;;;;;;;167.48;57.97;;;;;;;9.49;79.73;99615.00;4940182;29;20237;-57
2022/12/27 03:45:20;;;;;;;159.77;59.40;;;;;;;9.33;79.00;99625.91;4941589;29;20083;-54
2022/12/27 03:48:11;;;;;;;153.20;60.10;;;;;;;9.85;78.64;99624.97;4941043;29;20064;-58
2022/12/27 03:51:10;;;;;;;163.05;58.25;;;;;;;9.76;78.34;99640.34;4943395;28;20142;-54
2022/12/27 03:54:07;;;;;;;148.15;57.78;;;;;;;10.25;76.14;99646.09;4934064;29;20074;-52
2022/12/27 03:56:56;;;;;;;153.55;59.20;;;;;;;10.51;75.79;99657.13;4941271;29;20095;-55
2022/12/27 03:59:45;;;;;;;142.10;57.78;;;;;;;10.66;75.19;99665.16;4939534;29;20065;-55
2022/12/27 04:02:27;;;;;;;148.20;58.72;;;;;;;11.21;74.30;99672.66;4943153;29;20067;-52
2022/12/27 04:05:22;;;;;;;155.52;58.55;;;;;;;11.27;72.32;99672.72;4913185;29;20047;-62
2022/12/27 04:35:34;;;;;;;141.40;57.70;;;;;;;12.26;68.82;99660.03;4935853;29;20289;-63
2022/12/27 04:38:23;;;;;;;138.07;57.92;;;;;;;12.20;69.04;99664.38;4934176;29;20110;-64
2022/12/27 04:56:45;;;;;;;142.95;61.47;;;;;;;12.58;67.70;99630.75;4922948;29;20062;-63
2022/12/27 05:02:41;;;;;;;155.80;63.90;;;;;;;12.45;67.34;99648.50;4928421;29;20043;-63
2022/12/27 05:05:25;;;;;;;138.50;61.75;;;;;;;12.55;67.78;99634.66;4916820;29;20051;-65
2022/12/27 05:14:23;;;;;;;142.38;64.68;;;;;;;12.23;68.47;99631.69;4928980;29;20047;-64
2022/12/27 05:17:05;;;;;;;154.25;65.07;;;;;;;12.49;67.38;99638.97;4929538;29;20087;-63
2022/12/27 05:19:54;;;;;;;147.55;63.58;;;;;;;12.63;67.31;99639.00;4929235;29;20043;-64
2022/12/27 05:25:50;;;;;;;146.90;64.32;;;;;;;13.08;66.65;99637.41;4927675;29;20059;-65
2022/12/27 05:28:32;;;;;;;162.85;68.20;;;;;;;13.29;66.06;99636.34;4911159;29;20641;-65
2022/12/27 05:31:21;;;;;;;152.20;68.22;;;;;;;13.28;65.51;99641.97;4928596;29;20076;-64
2022/12/27 05:34:05;;;;;;;163.20;69.03;;;;;;;13.50;66.71;99629.91;4913085;29;20051;-65
2022/12/27 05:36:54;;;;;;;149.52;67.97;;;;;;;13.54;65.75;99621.41;4929191;29;20047;-66
2022/12/27 05:39:49;;;;;;;164.45;70.75;;;;;;;14.16;64.67;99614.56;4927951;29;20460;-63
2022/12/27 05:42:25;;;;;;;170.85;73.63;;;;;;;13.68;62.48;99617.63;4927691;29;20047;-65
2022/12/27 05:45:20;;;;;;;165.82;73.90;;;;;;;13.90;62.65;99616.31;4925464;29;20051;-65
2022/12/27 05:47:57;;;;;;;175.48;77.00;;;;;;;14.01;62.59;99595.13;4927203;29;20048;-66
2022/12/27 05:50:52;;;;;;;175.45;76.40;;;;;;;13.66;63.83;99598.13;4930327;28;20252;-65
2022/12/27 05:53:41;;;;;;;176.05;75.00;;;;;;;13.99;63.29;99592.63;4924335;29;20059;-65
2022/12/27 05:56:30;;;;;;;166.43;75.65;;;;;;;13.94;64.21;99586.22;4938250;29;20058;-65
2022/12/27 05:59:25;;;;;;;181.73;76.97;;;;;;;13.72;63.30;99581.13;4932066;29;20051;-63
2022/12/27 06:02:01;;;;;;;172.82;78.28;;;;;;;13.71;64.01;99588.34;4940235;29;20043;-64
2022/12/27 06:04:50;;;;;;;178.55;79.57;;;;;;;14.40;62.81;99585.13;4929867;29;20083;-64
2022/12/27 06:07:32;;;;;;;187.23;76.60;;;;;;;14.41;63.00;99586.81;4939969;29;20057;-66
2022/12/27 06:10:27;;;;;;;180.98;79.10;;;;;;;14.47;63.12;99596.72;4934599;29;20131;-65
2022/12/27 06:13:04;;;;;;;165.63;77.60;;;;;;;14.33;62.24;99590.59;4937970;29;20043;-64
2022/12/27 06:16:00;;;;;;;178.02;78.70;;;;;;;14.80;61.81;99579.47;4934900;29;20864;-63
2022/12/27 06:18:37;;;;;;;170.93;79.47;;;;;;;14.70;61.96;99569.16;4932637;29;20122;-61
2022/12/27 06:21:25;;;;;;;178.80;77.57;;;;;;;15.06;60.21;99568.44;4928331;29;20059;-63
2022/12/27 06:24:14;;;;;;;167.15;77.00;;;;;;;15.12;60.77;99560.50;4934644;29;20044;-64
2022/12/27 06:27:10;;;;;;;188.52;83.65;;;;;;;14.98;61.05;99549.81;4935145;29;20526;-63
2022/12/27 06:30:03;;;;;;;168.65;76.95;;;;;;;14.81;60.73;99537.91;4910373;29;20389;-64
2022/12/27 06:33:03;;;;;;;174.80;78.65;;;;;;;15.48;59.87;99540.75;4935369;29;20145;-64
2022/12/27 06:35:39;;;;;;;169.80;78.53;;;;;;;15.70;58.75;99534.88;4939425;29;20051;-63
2022/12/27 06:38:33;;;;;;;179.55;79.07;;;;;;;15.87;59.30;99533.22;4938253;29;21552;-63
2022/12/27 06:41:12;;;;;;;175.90;78.10;;;;;;;15.38;60.22;99521.50;4942225;29;20051;-64
2022/12/27 06:44:00;;;;;;;176.70;77.72;;;;;;;15.77;59.12;99517.53;4938688;29;20115;-61
2022/12/27 06:46:43;;;;;;;176.52;78.32;;;;;;;15.75;59.06;99503.41;4934479;29;20059;-63
2022/12/27 06:49:39;;;;;;;184.50;80.75;;;;;;;15.96;57.84;99493.97;4939238;29;20142;-63
2022/12/27 06:52:22;;;;;;;186.15;84.10;;;;;;;15.62;56.97;99500.84;4943347;28;20039;-61
2022/12/27 06:55:11;;;;;;;183.50;80.15;;;;;;;15.89;58.51;99489.69;4930634;29;20051;-63
2022/12/27 06:57:53;;;;;;;175.85;82.78;;;;;;;15.75;57.69;99489.06;4937148;29;20046;-61
2022/12/27 07:00:42;;;;;;;168.48;77.07;;;;;;;15.39;58.84;99483.41;4924777;29;20062;-63
2022/12/27 07:03:24;;;;;;;177.43;80.55;;;;;;;15.51;57.96;99479.97;4919591;29;20051;-58
2022/12/27 07:06:15;;;;;;;178.93;83.57;;;;;;;15.63;58.13;99460.03;4932505;28;20047;-61
2022/12/27 07:09:00;;;;;;;170.48;81.07;;;;;;;15.63;58.03;99470.03;4940451;29;20051;-62
2022/12/27 07:11:48;;;;;;;189.88;83.05;;;;;;;15.63;58.55;99470.03;4939879;29;20063;-61
2022/12/27 07:14:30;;;;;;;182.10;81.38;;;;;;;16.08;58.49;99468.81;4939074;29;20062;-65
2022/12/27 07:17:19;;;;;;;185.07;84.93;;;;;;;16.13;57.28;99460.81;4936801;29;20893;-64
2022/12/27 07:20:03;;;;;;;178.05;82.32;;;;;;;16.12;56.87;99451.03;4938782;29;20170;-62
2022/12/27 07:22:52;;;;;;;178.65;84.60;;;;;;;16.38;56.97;99447.09;4938249;29;20051;-62
2022/12/27 07:25:34;;;;;;;187.35;84.95;;;;;;;16.24;57.27;99433.75;4903370;29;20055;-62
2022/12/27 07:28:23;;;;;;;184.88;83.53;;;;;;;16.44;57.86;99432.59;4939288;29;20552;-64
2022/12/27 07:31:15;;;;;;;187.20;87.85;;;;;;;16.43;56.91;99420.09;4939878;29;20073;-59
2022/12/27 07:34:05;;;;;;;190.70;87.43;;;;;;;16.55;56.77;99420.13;4934414;29;20126;-59
2022/12/27 07:36:48;;;;;;;194.48;89.88;;;;;;;16.78;56.88;99417.38;4939149;29;20058;-62
2022/12/27 07:39:37;;;;;;;194.77;90.10;;;;;;;16.57;57.38;99409.88;4942722;29;20555;-59
2022/12/27 07:42:34;;;;;;;197.50;87.15;;;;;;;16.89;56.76;99409.50;4933711;29;20054;-61
2022/12/27 07:45:10;;;;;;;182.23;91.13;;;;;;;16.78;56.97;99401.13;4940975;29;20059;-61
2022/12/27 07:48:04;;;;;;;200.98;94.10;;;;;;;16.35;56.14;99402.31;4941587;29;20051;-60
2022/12/27 07:51:00;;;;;;;204.93;94.60;;;;;;;16.28;56.38;99396.19;4930713;29;20167;-65
2022/12/27 07:53:56;;;;;;;197.13;91.57;;;;;;;16.33;56.83;99403.59;4942981;29;20058;-58
2022/12/27 07:56:32;;;;;;;204.95;95.28;;;;;;;16.66;57.16;99394.06;4936393;28;20051;-62
2022/12/27 07:59:21;;;;;;;210.82;97.57;;;;;;;16.45;57.31;99374.63;4946122;28;20043;-60
2022/12/27 08:02:10;;;;;;;207.38;95.15;;;;;;;16.33;56.21;99368.41;4939887;29;20464;-60
2022/12/27 08:05:05;;;;;;;218.73;95.13;;;;;;;16.54;56.05;99362.38;4939175;28;20048;-62
2022/12/27 08:07:41;;;;;;;208.05;94.30;;;;;;;16.94;56.05;99349.97;4942142;28;20061;-60
2022/12/27 08:10:37;;;;;;;216.18;96.55;;;;;;;16.81;55.24;99349.16;4939984;29;20138;-63
2022/12/27 08:13:13;;;;;;;212.45;99.07;;;;;;;17.07;56.26;99348.88;4936363;28;20062;-61
2022/12/27 08:16:02;;;;;;;215.52;97.07;;;;;;;17.12;55.53;99340.81;4933916;29;20655;-61
2022/12/27 08:18:52;;;;;;;217.27;98.95;;;;;;;17.27;54.57;99329.44;4933143;28;20396;-65
2022/12/27 08:21:34;;;;;;;229.40;100.78;;;;;;;17.31;53.88;99323.31;4947611;28;20726;-65
2022/12/27 08:24:23;;;;;;;220.13;101.03;;;;;;;17.13;54.00;99323.50;4913851;28;20487;-61
2022/12/27 08:27:12;;;;;;;210.73;97.90;;;;;;;17.19;53.54;99319.81;4944544;28;20051;-64
2022/12/27 08:30:01;;;;;;;208.05;96.18;;;;;;;17.68;52.82;99322.88;4923885;29;20206;-63
2022/12/27 08:32:50;;;;;;;212.77;95.78;;;;;;;17.81;53.14;99314.41;4940905;28;20058;-60
2022/12/27 08:35:49;;;;;;;;;;;;;;;17.51;51.95;99300.31;4937414;28;20405;-61
2022/12/27 08:38:33;;;;;;;211.93;95.05;;;;;;;17.75;51.98;99290.13;4935903;28;19958;-60
2022/12/27 08:41:30;;;;;;;216.32;93.20;;;;;;;17.83;52.06;99291.59;4940407;28;20055;-61
2022/12/27 08:44:17;;;;;;;211.82;95.22;;;;;;;17.81;51.77;99291.88;4938597;28;20150;-61
2022/12/27 08:47:06;;;;;;;210.52;94.53;;;;;;;17.44;52.56;99283.38;4937761;28;20058;-61
2022/12/27 08:49:48;;;;;;;219.02;98.50;;;;;;;17.18;52.47;99280.22;4940981;28;20056;-60
2022/12/27 08:52:43;;;;;;;223.48;97.35;;;;;;;17.86;51.13;99286.53;4946638;29;20058;-61
2022/12/27 08:55:19;;;;;;;195.40;92.10;;;;;;;17.92;51.86;99284.72;4928072;29;20051;-60
2022/12/27 08:58:10;;;;;;;226.00;99.65;;;;;;;17.66;52.49;99276.16;4932573;29;20063;-60
2022/12/27 09:00:56;;;;;;;214.77;98.65;;;;;;;17.83;52.43;99275.31;4946811;29;20051;-60
2022/12/27 09:03:46;;;;;;;204.82;93.40;;;;;;;18.00;51.78;99285.13;4938803;29;20055;-61
2022/12/27 09:06:35;;;;;;;205.68;92.68;;;;;;;17.84;51.03;99280.53;4928825;29;20130;-60
2022/12/27 09:09:30;;;;;;;222.75;98.15;;;;;;;17.95;50.81;99285.03;4937095;29;20078;-61
2022/12/27 09:12:06;;;;;;;216.48;97.20;;;;;;;18.06;51.09;99279.78;4929733;29;20170;-61
2022/12/27 09:14:57;;;;;;;215.30;96.60;;;;;;;18.22;51.78;99278.91;4940777;29;20143;-59
2022/12/27 09:17:39;;;;;;;213.48;93.90;;;;;;;17.82;50.49;99277.22;4938750;28;20357;-60
2022/12/27 09:20:35;;;;;;;222.02;95.25;;;;;;;17.86;52.32;99274.84;4908685;29;20059;-60
2022/12/27 09:23:11;;;;;;;198.98;92.60;;;;;;;17.79;51.30;99270.38;4904384;29;20515;-61
2022/12/27 09:26:13;;;;;;;223.55;94.22;;;;;;;18.03;50.72;99259.34;4922209;29;20056;-61
2022/12/27 09:29:03;;;;;;;228.38;95.68;;;;;;;17.72;51.51;99269.72;4927799;29;20055;-61
2022/12/27 09:31:45;;;;;;;233.45;95.65;;;;;;;17.69;51.37;99264.78;4930296;29;20051;-60
2022/12/27 09:34:34;;;;;;;216.38;95.10;;;;;;;17.36;51.32;99252.84;4930829;29;20451;-61
2022/12/27 09:37:16;;;;;;;210.25;94.85;;;;;;;17.62;51.14;99258.72;4916864;29;20106;-61
2022/12/27 09:40:05;;;;;;;226.27;97.10;;;;;;;17.36;52.10;99255.56;4935819;29;20059;-61
2022/12/27 09:43:06;;;;;;;215.70;93.07;;;;;;;17.57;51.93;99250.47;4930664;29;20051;-63
2022/12/27 09:46:07;;;;;;;224.25;96.40;;;;;;;17.57;52.04;99258.63;4930953;29;20446;-61
2022/12/27 09:48:54;;;;;;;197.60;88.90;;;;;;;17.14;51.86;99262.75;4931675;29;20047;-59
2022/12/27 09:51:59;;;;;;;220.35;96.10;;;;;;;17.08;53.13;99261.03;4932933;29;20047;-60
2022/12/27 09:54:59;;;;;;;220.77;93.40;;;;;;;16.72;53.51;99263.00;4930565;29;20055;-59
2022/12/27 09:57:51;;;;;;;219.70;93.65;;;;;;;17.02;53.72;99255.53;4927153;29;20122;-60
2022/12/27 10:00:33;;;;;;;230.82;94.97;;;;;;;17.16;54.00;99250.63;4934981;29;20066;-60
2022/12/27 10:03:31;;;;;;;217.63;93.75;;;;;;;17.16;53.80;99242.47;4929087;29;20647;-59
2022/12/27 10:06:47;;;;;;;198.55;89.28;;;;;;;17.15;53.75;99231.88;4928465;29;20051;-59
2022/12/27 10:09:39;;;;;;;;;;;;;;;17.12;54.55;99229.63;4930305;29;20062;-61
2022/12/27 10:12:53;;;;;;;170.50;75.47;;;;;;;16.94;56.02;99236.91;4930384;29;19931;-60
2022/12/27 10:15:45;;;;;;;159.93;72.20;;;;;;;17.05;55.83;99242.53;4930802;29;20053;-60
2022/12/27 10:18:48;;;;;;;161.60;70.82;;;;;;;17.02;55.82;99228.41;4930583;29;20127;-60
2022/12/27 10:21:43;;;;;;;159.55;68.35;;;;;;;16.78;55.17;99243.09;4930154;29;20763;-61
2022/12/27 10:24:34;;;;;;;154.82;67.38;;;;;;;16.85;55.33;99232.13;4927018;29;20495;-62
2022/12/27 10:27:28;;;;;;;141.85;67.88;;;;;;;17.05;56.01;99234.41;4917884;29;20074;-62
2022/12/27 10:30:16;;;;;;;157.10;69.05;;;;;;;17.07;55.37;99224.13;4928146;29;20058;-61
2022/12/27 10:33:05;;;;;;;145.40;66.90;;;;;;;16.93;55.63;99227.16;4929279;29;20487;-61
2022/12/27 10:35:48;;;;;;;148.80;67.78;;;;;;;16.91;55.88;99221.16;4926299;29;20059;-61
2022/12/27 10:38:40;;;;;;;147.00;66.90;;;;;;;16.85;56.79;99224.00;4927899;29;20495;-61
2022/12/27 10:41:32;;;;;;;143.52;67.22;;;;;;;16.80;56.52;99230.13;4928415;28;20130;-60
2022/12/27 10:44:20;;;;;;;136.68;64.47;;;;;;;16.74;57.10;99228.38;4931055;29;20065;-60
2022/12/27 10:47:02;;;;;;;136.27;63.88;;;;;;;16.93;57.29;99229.88;4928767;29;20047;-60
2022/12/27 10:50:10;;;;;;;142.63;66.13;;;;;;;16.50;57.23;99231.16;4928975;29;20074;-61
2022/12/27 10:53:05;;;;;;;134.05;63.40;;;;;;;16.72;57.76;99238.63;4925337;29;20806;-63
2022/12/27 10:55:41;;;;;;;133.40;62.72;;;;;;;16.66;57.37;99239.59;4923607;29;20118;-67
2022/12/27 10:58:35;;;;;;;133.70;60.92;;;;;;;16.47;57.90;99234.38;4925876;29;20059;-64
2022/12/27 11:01:32;;;;;;;128.63;62.50;;;;;;;16.52;57.80;99223.59;4928582;29;20396;-63
2022/12/27 11:04:28;;;;;;;;;;;;;;;16.62;58.83;99222.97;4928998;29;20058;-64
2022/12/27 11:07:04;;;;;;;135.20;57.83;;;;;;;16.67;58.57;99228.50;4927837;29;19934;-63
2022/12/27 11:10:05;;;;;;;128.93;59.20;;;;;;;16.62;59.66;99221.13;4924994;29;20515;-63
2022/12/27 11:13:07;;;;;;;124.30;59.35;;;;;;;16.69;59.34;99217.44;4938673;29;20055;-64
2022/12/27 11:15:56;;;;;;;115.93;54.60;;;;;;;16.35;59.93;99211.88;4933775;29;20055;-64
2022/12/27 11:18:41;;;;;;;114.45;54.97;;;;;;;16.34;60.02;99210.25;4920651;29;20083;-64
2022/12/27 11:21:36;;;;;;;121.13;56.83;;;;;;;16.32;60.96;99204.25;4934352;29;20060;-64
2022/12/27 11:24:22;;;;;;;110.88;54.80;;;;;;;16.43;61.87;99211.50;4916939;29;20090;-63
2022/12/27 11:27:22;;;;;;;119.30;55.33;;;;;;;16.70;60.33;99203.66;4937853;29;20138;-63
2022/12/27 11:30:12;;;;;;;117.35;56.70;;;;;;;16.50;60.31;99200.53;4936385;29;20106;-63
2022/12/27 11:32:56;;;;;;;121.28;57.22;;;;;;;16.60;60.52;99200.72;4936355;29;20048;-64
2022/12/27 11:35:55;;;;;;;120.05;56.85;;;;;;;16.42;60.56;99196.31;4937403;29;20059;-63
2022/12/27 11:38:41;;;;;;;124.05;58.10;;;;;;;16.37;61.51;99199.72;4935686;29;20052;-63
2022/12/27 11:41:55;;;;;;;125.22;59.55;;;;;;;16.44;61.58;99199.63;4926750;29;20039;-64
2022/12/27 11:44:43;;;;;;;134.25;61.42;;;;;;;16.32;61.88;99201.53;4928453;29;20047;-63
2022/12/27 11:47:50;;;;;;;120.70;57.90;;;;;;;16.36;62.16;99194.59;4945470;29;20043;-63
2022/12/27 11:50:51;;;;;;;128.77;61.80;;;;;;;16.00;64.29;99193.81;4936078;29;20145;-63
2022/12/27 11:54:20;;;;;;;125.10;60.97;;;;;;;16.19;62.63;99186.38;4928387;29;20048;-63
2022/12/27 11:57:42;;;;;;;127.80;58.10;;;;;;;16.14;62.97;99194.38;4911370;29;20051;-64
2022/12/27 12:00:30;;;;;;;115.88;56.97;;;;;;;16.18;62.96;99184.72;4938310;28;20054;-64
2022/12/27 12:03:46;;;;;;;121.80;60.47;;;;;;;16.05;63.31;99196.66;4936915;29;20059;-64
2022/12/27 12:06:52;;;;;;;124.38;59.33;;;;;;;15.99;64.11;99197.59;4941061;29;20518;-63
2022/12/27 12:09:41;;;;;;;123.18;61.30;;;;;;;15.91;64.22;99209.59;4930997;29;20054;-63
2022/12/27 12:12:52;;;;;;;112.70;57.15;;;;;;;15.88;64.49;99204.66;4946441;29;20058;-64
2022/12/27 12:16:23;;;;;;;125.28;61.33;;;;;;;15.86;65.45;99212.22;4935114;29;20523;-65
2022/12/27 12:20:18;;;;;;;131.75;61.90;;;;;;;15.66;66.20;99199.00;4919272;29;20051;-62
2022/12/27 12:23:26;;;;;;;119.60;61.97;;;;;;;15.72;66.69;99198.03;4857621;29;20049;-64
2022/12/27 12:26:27;;;;;;;141.70;63.13;;;;;;;15.63;67.01;99205.69;4868645;29;20136;-65
2022/12/27 12:29:21;;;;;;;136.05;63.50;;;;;;;15.68;66.00;99194.16;4934187;29;20127;-63
2022/12/27 12:32:20;;;;;;;123.03;61.92;;;;;;;15.67;66.96;99184.41;4935343;29;20110;-66
2022/12/27 12:35:25;;;;;;;132.52;61.13;;;;;;;15.73;66.06;99188.06;4937735;29;20105;-65
2022/12/27 12:38:27;;;;;;;127.30;59.50;;;;;;;15.57;67.09;99189.56;4937177;29;20150;-64
2022/12/27 12:41:50;;;;;;;123.15;60.88;;;;;;;15.69;67.13;99182.28;4939439;29;20809;-62
2022/12/27 12:45:05;;;;;;;124.05;61.65;;;;;;;15.34;68.13;99190.38;4923069;29;20534;-60
2022/12/27 12:47:59;;;;;;;126.03;61.47;;;;;;;15.44;68.05;99196.88;4946039;29;20055;-64
2022/12/27 12:51:14;;;;;;;131.90;64.60;;;;;;;15.41;68.34;99196.50;4943167;29;20066;-61
2022/12/27 12:54:30;;;;;;;136.50;66.95;;;;;;;15.18;68.99;99208.13;4932425;28;20055;-60
2022/12/27 12:57:37;;;;;;;122.45;67.32;;;;;;;15.22;69.61;99209.28;4947242;28;20054;-63
2022/12/27 13:00:23;;;;;;;143.07;79.03;;;;;;;15.33;68.19;99211.19;4942174;29;20133;-64
2022/12/27 13:03:35;;;;;;;144.10;79.60;;;;;;;15.25;68.45;99216.94;4936941;28;20050;-58
2022/12/27 13:06:23;;;;;;;149.50;78.38;;;;;;;15.33;68.67;99224.72;4945649;28;20066;-61
2022/12/27 13:09:39;;;;;;;138.85;78.10;;;;;;;15.29;69.40;99225.44;4940217;28;20055;-58
2022/12/27 13:12:45;;;;;;;136.38;75.18;;;;;;;15.18;69.43;99227.03;4937604;28;20047;-60
2022/12/27 13:15:55;;;;;;;154.90;78.10;;;;;;;15.20;69.10;99224.91;4939182;28;20147;-62
2022/12/27 13:18:48;;;;;;;142.13;76.18;;;;;;;15.08;69.17;99231.13;4936681;28;20047;-63
2022/12/27 13:22:03;;;;;;;145.45;76.57;;;;;;;15.15;69.37;99235.59;4935737;28;20051;-61
2022/12/27 13:25:14;;;;;;;148.15;77.05;;;;;;;15.21;68.93;99237.38;4931606;29;20685;-56
2022/12/27 13:28:42;;;;;;;149.25;77.38;;;;;;;15.27;68.93;99237.28;4918846;28;20050;-59
2022/12/27 13:32:01;;;;;;;139.63;73.57;;;;;;;15.44;68.59;99242.03;4937715;28;20406;-61
2022/12/27 13:35:24;;;;;;;121.95;65.40;;;;;;;15.54;68.87;99236.03;4941944;28;20546;-65
2022/12/27 13:38:17;;;;;;;135.73;67.15;;;;;;;15.57;68.21;99240.97;4937773;28;20044;-63
2022/12/27 13:41:37;;;;;;;136.85;66.88;;;;;;;15.45;68.85;99244.47;4937523;28;20043;-63
2022/12/27 13:44:34;;;;;;;116.35;65.40;;;;;;;15.55;68.79;99234.97;4930727;28;20080;-63
2022/12/27 13:47:47;;;;;;;125.03;66.43;;;;;;;15.41;69.02;99237.06;4930370;28;20670;-61
2022/12/27 13:50:42;;;;;;;144.75;67.25;;;;;;;15.21;68.83;99235.50;4932804;28;20581;-63
2022/12/27 13:53:52;;;;;;;136.73;69.70;;;;;;;15.09;69.67;99245.44;4917911;29;20476;-64
2022/12/27 13:56:42;;;;;;;136.02;70.28;;;;;;;15.05;70.25;99242.38;4931582;29;20075;-66
2022/12/27 14:00:13;;;;;;;127.97;68.05;;;;;;;15.01;70.08;99252.00;4936208;29;20080;-57
2022/12/27 14:03:38;;;;;;;135.32;71.05;;;;;;;14.97;70.54;99240.00;4934400;29;20061;-61
2022/12/27 14:07:08;;;;;;;133.18;71.63;;;;;;;14.98;69.97;99252.50;4921107;29;20064;-61
2022/12/27 14:10:11;;;;;;;146.32;73.20;;;;;;;15.01;70.31;99253.91;4929878;29;20058;-61
2022/12/27 14:13:17;;;;;;;150.50;78.57;;;;;;;14.93;70.23;99255.03;4934399;29;20103;-62
2022/12/27 14:15:56;;;;;;;151.38;80.28;;;;;;;14.77;70.76;99259.22;4937857;28;20571;-61
2022/12/27 14:19:08;;;;;;;157.50;79.93;;;;;;;14.74;71.31;99262.34;4932488;29;20079;-62
2022/12/27 14:22:03;;;;;;;154.43;81.68;;;;;;;14.75;71.97;99260.47;4928387;29;20102;-65
2022/12/27 14:25:10;;;;;;;172.27;84.88;;;;;;;14.66;72.40;99260.78;4945881;29;20483;-62
2022/12/27 14:28:10;;;;;;;166.85;84.97;;;;;;;14.48;72.70;99255.38;4914779;29;20051;-61
2022/12/27 14:31:34;;;;;;;172.02;85.70;;;;;;;14.43;73.58;99252.53;4945980;29;20146;-62
2022/12/27 14:34:37;;;;;;;182.18;90.75;;;;;;;14.45;74.06;99264.75;4937312;29;20071;-61
2022/12/27 14:38:10;;;;;;;189.37;89.83;;;;;;;14.54;74.05;99270.69;4939112;29;20051;-59
2022/12/27 14:41:35;;;;;;;201.57;95.10;;;;;;;14.44;74.26;99270.38;4939203;29;20296;-62
2022/12/27 14:44:35;;;;;;;203.77;97.68;;;;;;;14.27;74.90;99267.44;4931029;29;20157;-63
2022/12/27 14:48:01;;;;;;;191.85;98.60;;;;;;;14.45;75.49;99272.03;4938988;29;20079;-61